sensor_id;sensor_type;location;lat;lon;timestamp;P1;durP1;ratioP1;P2;durP2;ratioP2
72065;SDS011;59939;52.516;13.420;2023-05-19T00:01:34;11.90;;;2.70;;
72065;SDS011;59939;52.516;13.420;2023-05-19T00:04:40;11.20;;;3.10;;
72065;SDS011;59939;52.516;13.420;2023-05-19T00:07:44;11.57;;;2.57;;
72065;SDS011;59939;52.516;13.420;2023-05-19T00:10:50;11.63;;;2.40;;
72065;SDS011;59939;52.516;13.420;2023-05-19T00:14:04;11.37;;;2.77;;
72065;SDS011;59939;52.516;13.420;2023-05-19T00:17:09;7.97;;;2.20;;
72065;SDS011;59939;52.516;13.420;2023-05-19T00:20:15;12.97;;;3.33;;
72065;SDS011;59939;52.516;13.420;2023-05-19T00:23:19;11.70;;;2.77;;
72065;SDS011;59939;52.516;13.420;2023-05-19T00:26:24;14.00;;;2.47;;
72065;SDS011;59939;52.516;13.420;2023-05-19T00:29:38;9.00;;;2.40;;
72065;SDS011;59939;52.516;13.420;2023-05-19T00:32:51;9.00;;;2.33;;
72065;SDS011;59939;52.516;13.420;2023-05-19T00:36:28;8.77;;;2.40;;
72065;SDS011;59939;52.516;13.420;2023-05-19T00:39:32;9.27;;;2.93;;
72065;SDS011;59939;52.516;13.420;2023-05-19T00:42:37;9.00;;;2.30;;
72065;SDS011;59939;52.516;13.420;2023-05-19T00:45:40;14.13;;;2.77;;
72065;SDS011;59939;52.516;13.420;2023-05-19T00:48:45;6.17;;;2.20;;
72065;SDS011;59939;52.516;13.420;2023-05-19T00:51:58;8.37;;;2.40;;
72065;SDS011;59939;52.516;13.420;2023-05-19T00:55:02;15.70;;;4.37;;
72065;SDS011;59939;52.516;13.420;2023-05-19T00:58:07;6.63;;;2.33;;
72065;SDS011;59939;52.516;13.420;2023-05-19T01:01:14;8.63;;;2.30;;
72065;SDS011;59939;52.516;13.420;2023-05-19T01:04:27;7.87;;;2.03;;
72065;SDS011;59939;52.516;13.420;2023-05-19T01:07:32;8.67;;;2.50;;
72065;SDS011;59939;52.516;13.420;2023-05-19T01:10:37;10.33;;;2.93;;
72065;SDS011;59939;52.516;13.420;2023-05-19T01:13:48;13.07;;;2.60;;
72065;SDS011;59939;52.516;13.420;2023-05-19T01:16:55;7.20;;;2.20;;
72065;SDS011;59939;52.516;13.420;2023-05-19T01:20:21;9.20;;;2.50;;
72065;SDS011;59939;52.516;13.420;2023-05-19T01:23:33;9.47;;;2.73;;
72065;SDS011;59939;52.516;13.420;2023-05-19T01:26:51;12.57;;;2.43;;
72065;SDS011;59939;52.516;13.420;2023-05-19T01:33:28;9.47;;;2.60;;
72065;SDS011;59939;52.516;13.420;2023-05-19T01:36:32;10.67;;;2.63;;
72065;SDS011;59939;52.516;13.420;2023-05-19T01:39:38;8.07;;;2.30;;
72065;SDS011;59939;52.516;13.420;2023-05-19T01:42:51;10.07;;;2.67;;
72065;SDS011;59939;52.516;13.420;2023-05-19T01:46:01;7.40;;;2.13;;
72065;SDS011;59939;52.516;13.420;2023-05-19T01:49:05;12.07;;;2.80;;
72065;SDS011;59939;52.516;13.420;2023-05-19T01:52:10;13.97;;;2.47;;
72065;SDS011;59939;52.516;13.420;2023-05-19T01:55:17;10.80;;;2.77;;
72065;SDS011;59939;52.516;13.420;2023-05-19T01:58:36;12.13;;;2.50;;
72065;SDS011;59939;52.516;13.420;2023-05-19T02:01:44;7.70;;;2.47;;
72065;SDS011;59939;52.516;13.420;2023-05-19T02:04:54;11.70;;;2.70;;
72065;SDS011;59939;52.516;13.420;2023-05-19T02:08:09;13.57;;;2.53;;
72065;SDS011;59939;52.516;13.420;2023-05-19T02:18:04;9.50;;;2.80;;
72065;SDS011;59939;52.516;13.420;2023-05-19T02:21:09;8.23;;;2.23;;
72065;SDS011;59939;52.516;13.420;2023-05-19T02:24:18;10.57;;;2.80;;
72065;SDS011;59939;52.516;13.420;2023-05-19T02:27:23;9.40;;;2.30;;
72065;SDS011;59939;52.516;13.420;2023-05-19T02:30:26;11.63;;;3.00;;
72065;SDS011;59939;52.516;13.420;2023-05-19T02:33:30;7.93;;;2.43;;
72065;SDS011;59939;52.516;13.420;2023-05-19T02:36:42;12.73;;;2.53;;
72065;SDS011;59939;52.516;13.420;2023-05-19T02:39:46;9.53;;;2.77;;
72065;SDS011;59939;52.516;13.420;2023-05-19T02:42:50;13.40;;;3.23;;
72065;SDS011;59939;52.516;13.420;2023-05-19T02:45:55;11.03;;;2.63;;
72065;SDS011;59939;52.516;13.420;2023-05-19T02:48:59;6.07;;;2.20;;
72065;SDS011;59939;52.516;13.420;2023-05-19T02:52:06;8.60;;;2.33;;
72065;SDS011;59939;52.516;13.420;2023-05-19T02:55:11;9.50;;;2.67;;
72065;SDS011;59939;52.516;13.420;2023-05-19T02:58:20;5.90;;;2.30;;
72065;SDS011;59939;52.516;13.420;2023-05-19T03:01:32;8.83;;;2.30;;
72065;SDS011;59939;52.516;13.420;2023-05-19T03:04:36;12.57;;;3.13;;
72065;SDS011;59939;52.516;13.420;2023-05-19T03:07:44;11.70;;;2.70;;
72065;SDS011;59939;52.516;13.420;2023-05-19T03:10:48;17.30;;;2.93;;
72065;SDS011;59939;52.516;13.420;2023-05-19T03:13:52;8.23;;;2.40;;
72065;SDS011;59939;52.516;13.420;2023-05-19T03:16:57;10.97;;;2.10;;
72065;SDS011;59939;52.516;13.420;2023-05-19T03:20:02;6.70;;;2.10;;
72065;SDS011;59939;52.516;13.420;2023-05-19T03:26:37;10.30;;;2.43;;
72065;SDS011;59939;52.516;13.420;2023-05-19T03:29:43;8.90;;;2.37;;
72065;SDS011;59939;52.516;13.420;2023-05-19T03:32:47;12.30;;;3.00;;
72065;SDS011;59939;52.516;13.420;2023-05-19T03:35:52;11.20;;;2.67;;
72065;SDS011;59939;52.516;13.420;2023-05-19T03:38:57;9.50;;;2.60;;
72065;SDS011;59939;52.516;13.420;2023-05-19T03:42:01;6.70;;;2.37;;
72065;SDS011;59939;52.516;13.420;2023-05-19T03:45:07;11.27;;;2.73;;
72065;SDS011;59939;52.516;13.420;2023-05-19T03:48:11;7.60;;;2.60;;
72065;SDS011;59939;52.516;13.420;2023-05-19T03:51:36;10.53;;;2.70;;
72065;SDS011;59939;52.516;13.420;2023-05-19T03:54:58;9.13;;;2.40;;
72065;SDS011;59939;52.516;13.420;2023-05-19T03:58:03;8.90;;;2.37;;
72065;SDS011;59939;52.516;13.420;2023-05-19T04:01:09;8.80;;;2.40;;
72065;SDS011;59939;52.516;13.420;2023-05-19T04:04:21;10.50;;;2.90;;
72065;SDS011;59939;52.516;13.420;2023-05-19T04:07:25;8.43;;;2.60;;
72065;SDS011;59939;52.516;13.420;2023-05-19T04:10:30;11.30;;;3.07;;
72065;SDS011;59939;52.516;13.420;2023-05-19T04:13:34;14.70;;;3.33;;
72065;SDS011;59939;52.516;13.420;2023-05-19T04:16:42;10.40;;;3.17;;
72065;SDS011;59939;52.516;13.420;2023-05-19T04:19:46;10.53;;;2.90;;
72065;SDS011;59939;52.516;13.420;2023-05-19T04:22:50;8.13;;;2.77;;
72065;SDS011;59939;52.516;13.420;2023-05-19T04:26:02;8.70;;;2.70;;
72065;SDS011;59939;52.516;13.420;2023-05-19T04:29:11;23.57;;;4.57;;
72065;SDS011;59939;52.516;13.420;2023-05-19T04:32:16;11.13;;;2.97;;
72065;SDS011;59939;52.516;13.420;2023-05-19T04:35:20;11.67;;;2.70;;
72065;SDS011;59939;52.516;13.420;2023-05-19T04:38:28;9.73;;;2.97;;
72065;SDS011;59939;52.516;13.420;2023-05-19T04:41:32;8.23;;;2.53;;
72065;SDS011;59939;52.516;13.420;2023-05-19T04:44:39;10.63;;;2.50;;
72065;SDS011;59939;52.516;13.420;2023-05-19T04:47:44;8.40;;;2.50;;
72065;SDS011;59939;52.516;13.420;2023-05-19T04:50:50;11.83;;;3.07;;
72065;SDS011;59939;52.516;13.420;2023-05-19T04:53:57;7.67;;;2.70;;
72065;SDS011;59939;52.516;13.420;2023-05-19T04:57:05;10.33;;;2.70;;
72065;SDS011;59939;52.516;13.420;2023-05-19T05:00:17;10.50;;;3.10;;
72065;SDS011;59939;52.516;13.420;2023-05-19T05:03:39;9.43;;;2.80;;
72065;SDS011;59939;52.516;13.420;2023-05-19T05:06:43;8.53;;;2.60;;
72065;SDS011;59939;52.516;13.420;2023-05-19T05:09:50;13.97;;;3.00;;
72065;SDS011;59939;52.516;13.420;2023-05-19T05:12:55;12.63;;;3.30;;
72065;SDS011;59939;52.516;13.420;2023-05-19T05:16:00;10.40;;;2.50;;
72065;SDS011;59939;52.516;13.420;2023-05-19T05:19:04;8.47;;;2.67;;
72065;SDS011;59939;52.516;13.420;2023-05-19T05:22:08;11.03;;;3.23;;
72065;SDS011;59939;52.516;13.420;2023-05-19T05:25:15;12.17;;;3.10;;
72065;SDS011;59939;52.516;13.420;2023-05-19T05:28:33;10.68;;;2.90;;
72065;SDS011;59939;52.516;13.420;2023-05-19T05:31:37;12.10;;;2.87;;
72065;SDS011;59939;52.516;13.420;2023-05-19T05:34:42;10.83;;;3.13;;
72065;SDS011;59939;52.516;13.420;2023-05-19T05:37:53;8.57;;;2.73;;
72065;SDS011;59939;52.516;13.420;2023-05-19T05:40:58;10.93;;;3.10;;
72065;SDS011;59939;52.516;13.420;2023-05-19T05:44:02;13.33;;;3.33;;
72065;SDS011;59939;52.516;13.420;2023-05-19T05:47:07;13.65;;;3.28;;
72065;SDS011;59939;52.516;13.420;2023-05-19T05:50:24;11.23;;;2.70;;
72065;SDS011;59939;52.516;13.420;2023-05-19T05:53:29;11.63;;;2.93;;
72065;SDS011;59939;52.516;13.420;2023-05-19T05:56:36;11.90;;;3.30;;
72065;SDS011;59939;52.516;13.420;2023-05-19T05:59:46;11.55;;;3.47;;
72065;SDS011;59939;52.516;13.420;2023-05-19T06:02:51;12.18;;;3.30;;
72065;SDS011;59939;52.516;13.420;2023-05-19T06:06:02;12.63;;;3.40;;
72065;SDS011;59939;52.516;13.420;2023-05-19T06:09:14;15.65;;;4.70;;
72065;SDS011;59939;52.516;13.420;2023-05-19T06:12:19;9.18;;;2.72;;
72065;SDS011;59939;52.516;13.420;2023-05-19T06:15:25;11.23;;;2.97;;
72065;SDS011;59939;52.516;13.420;2023-05-19T06:18:43;11.43;;;2.97;;
72065;SDS011;59939;52.516;13.420;2023-05-19T06:21:47;9.60;;;3.05;;
72065;SDS011;59939;52.516;13.420;2023-05-19T06:24:51;11.13;;;3.45;;
72065;SDS011;59939;52.516;13.420;2023-05-19T06:27:56;9.65;;;3.00;;
72065;SDS011;59939;52.516;13.420;2023-05-19T06:31:00;12.05;;;3.30;;
72065;SDS011;59939;52.516;13.420;2023-05-19T06:34:21;8.88;;;3.00;;
72065;SDS011;59939;52.516;13.420;2023-05-19T06:37:32;9.55;;;2.75;;
72065;SDS011;59939;52.516;13.420;2023-05-19T06:40:39;10.75;;;3.15;;
72065;SDS011;59939;52.516;13.420;2023-05-19T06:43:43;9.32;;;2.80;;
72065;SDS011;59939;52.516;13.420;2023-05-19T06:46:49;9.90;;;3.20;;
72065;SDS011;59939;52.516;13.420;2023-05-19T06:50:01;10.70;;;3.15;;
72065;SDS011;59939;52.516;13.420;2023-05-19T06:53:10;9.00;;;3.05;;
72065;SDS011;59939;52.516;13.420;2023-05-19T06:56:22;7.05;;;2.45;;
72065;SDS011;59939;52.516;13.420;2023-05-19T06:59:28;9.77;;;3.13;;
72065;SDS011;59939;52.516;13.420;2023-05-19T07:02:44;13.80;;;3.13;;
72065;SDS011;59939;52.516;13.420;2023-05-19T07:05:49;9.98;;;3.20;;
72065;SDS011;59939;52.516;13.420;2023-05-19T07:08:54;9.45;;;2.95;;
72065;SDS011;59939;52.516;13.420;2023-05-19T07:12:01;11.50;;;2.92;;
72065;SDS011;59939;52.516;13.420;2023-05-19T07:18:36;9.43;;;2.88;;
72065;SDS011;59939;52.516;13.420;2023-05-19T07:21:42;10.60;;;3.17;;
72065;SDS011;59939;52.516;13.420;2023-05-19T07:24:47;14.32;;;3.15;;
72065;SDS011;59939;52.516;13.420;2023-05-19T07:27:53;10.40;;;3.00;;
72065;SDS011;59939;52.516;13.420;2023-05-19T07:30:57;9.20;;;2.80;;
72065;SDS011;59939;52.516;13.420;2023-05-19T07:34:01;13.13;;;2.85;;
72065;SDS011;59939;52.516;13.420;2023-05-19T07:37:05;9.68;;;2.90;;
72065;SDS011;59939;52.516;13.420;2023-05-19T07:40:14;7.90;;;2.78;;
72065;SDS011;59939;52.516;13.420;2023-05-19T07:43:19;12.05;;;3.72;;
72065;SDS011;59939;52.516;13.420;2023-05-19T07:46:23;10.57;;;3.53;;
72065;SDS011;59939;52.516;13.420;2023-05-19T07:49:27;10.13;;;3.20;;
72065;SDS011;59939;52.516;13.420;2023-05-19T07:52:33;11.85;;;2.90;;
72065;SDS011;59939;52.516;13.420;2023-05-19T07:55:38;14.65;;;3.00;;
72065;SDS011;59939;52.516;13.420;2023-05-19T07:58:42;13.70;;;3.53;;
72065;SDS011;59939;52.516;13.420;2023-05-19T08:01:46;8.80;;;2.90;;
72065;SDS011;59939;52.516;13.420;2023-05-19T08:04:50;8.50;;;2.55;;
72065;SDS011;59939;52.516;13.420;2023-05-19T08:08:09;12.45;;;3.50;;
72065;SDS011;59939;52.516;13.420;2023-05-19T08:11:16;11.55;;;3.20;;
72065;SDS011;59939;52.516;13.420;2023-05-19T08:14:20;9.40;;;2.90;;
72065;SDS011;59939;52.516;13.420;2023-05-19T08:17:32;9.65;;;3.20;;
72065;SDS011;59939;52.516;13.420;2023-05-19T08:20:43;11.30;;;3.28;;
72065;SDS011;59939;52.516;13.420;2023-05-19T08:23:48;8.10;;;2.95;;
72065;SDS011;59939;52.516;13.420;2023-05-19T08:26:52;9.95;;;3.53;;
72065;SDS011;59939;52.516;13.420;2023-05-19T08:29:58;8.57;;;3.20;;
72065;SDS011;59939;52.516;13.420;2023-05-19T08:33:09;9.82;;;2.95;;
72065;SDS011;59939;52.516;13.420;2023-05-19T08:36:15;10.80;;;2.92;;
72065;SDS011;59939;52.516;13.420;2023-05-19T08:39:19;10.77;;;2.92;;
72065;SDS011;59939;52.516;13.420;2023-05-19T08:42:29;8.85;;;2.92;;
72065;SDS011;59939;52.516;13.420;2023-05-19T08:45:47;12.50;;;2.97;;
72065;SDS011;59939;52.516;13.420;2023-05-19T08:48:53;10.25;;;2.50;;
72065;SDS011;59939;52.516;13.420;2023-05-19T08:55:14;12.32;;;2.70;;
72065;SDS011;59939;52.516;13.420;2023-05-19T08:58:19;8.90;;;2.50;;
72065;SDS011;59939;52.516;13.420;2023-05-19T09:01:24;8.93;;;2.67;;
72065;SDS011;59939;52.516;13.420;2023-05-19T09:04:34;9.57;;;2.67;;
72065;SDS011;59939;52.516;13.420;2023-05-19T09:07:40;5.68;;;2.83;;
72065;SDS011;59939;52.516;13.420;2023-05-19T09:10:48;6.40;;;2.22;;
72065;SDS011;59939;52.516;13.420;2023-05-19T09:13:52;5.15;;;2.35;;
72065;SDS011;59939;52.516;13.420;2023-05-19T09:16:56;7.20;;;2.35;;
72065;SDS011;59939;52.516;13.420;2023-05-19T09:20:15;9.85;;;2.30;;
72065;SDS011;59939;52.516;13.420;2023-05-19T09:23:21;6.03;;;2.08;;
72065;SDS011;59939;52.516;13.420;2023-05-19T09:26:35;6.38;;;2.28;;
72065;SDS011;59939;52.516;13.420;2023-05-19T09:29:40;7.85;;;1.80;;
72065;SDS011;59939;52.516;13.420;2023-05-19T09:32:44;6.32;;;2.10;;
72065;SDS011;59939;52.516;13.420;2023-05-19T09:35:52;6.28;;;2.00;;
72065;SDS011;59939;52.516;13.420;2023-05-19T09:38:56;5.65;;;2.05;;
72065;SDS011;59939;52.516;13.420;2023-05-19T09:42:02;4.82;;;1.63;;
72065;SDS011;59939;52.516;13.420;2023-05-19T09:45:07;8.13;;;2.00;;
72065;SDS011;59939;52.516;13.420;2023-05-19T09:48:12;7.07;;;1.73;;
72065;SDS011;59939;52.516;13.420;2023-05-19T09:51:16;5.68;;;1.80;;
72065;SDS011;59939;52.516;13.420;2023-05-19T09:54:21;8.30;;;2.40;;
72065;SDS011;59939;52.516;13.420;2023-05-19T09:57:34;8.07;;;2.40;;
72065;SDS011;59939;52.516;13.420;2023-05-19T10:00:47;4.57;;;1.73;;
72065;SDS011;59939;52.516;13.420;2023-05-19T10:03:54;5.10;;;1.67;;
72065;SDS011;59939;52.516;13.420;2023-05-19T10:07:01;5.05;;;1.77;;
72065;SDS011;59939;52.516;13.420;2023-05-19T10:10:15;4.63;;;1.88;;
72065;SDS011;59939;52.516;13.420;2023-05-19T10:13:19;8.13;;;1.92;;
72065;SDS011;59939;52.516;13.420;2023-05-19T10:16:24;8.70;;;1.77;;
72065;SDS011;59939;52.516;13.420;2023-05-19T10:19:29;7.80;;;1.77;;
72065;SDS011;59939;52.516;13.420;2023-05-19T10:22:36;3.97;;;1.70;;
72065;SDS011;59939;52.516;13.420;2023-05-19T10:25:41;6.03;;;1.75;;
72065;SDS011;59939;52.516;13.420;2023-05-19T10:28:59;4.72;;;1.50;;
72065;SDS011;59939;52.516;13.420;2023-05-19T10:32:05;5.07;;;1.50;;
72065;SDS011;59939;52.516;13.420;2023-05-19T10:38:47;5.93;;;1.90;;
72065;SDS011;59939;52.516;13.420;2023-05-19T10:42:10;3.90;;;1.63;;
72065;SDS011;59939;52.516;13.420;2023-05-19T10:45:19;5.75;;;1.75;;
72065;SDS011;59939;52.516;13.420;2023-05-19T10:48:23;6.97;;;1.80;;
72065;SDS011;59939;52.516;13.420;2023-05-19T10:51:31;4.13;;;1.38;;
72065;SDS011;59939;52.516;13.420;2023-05-19T10:54:38;6.13;;;1.95;;
72065;SDS011;59939;52.516;13.420;2023-05-19T10:57:53;5.57;;;1.70;;
72065;SDS011;59939;52.516;13.420;2023-05-19T11:01:00;8.68;;;1.80;;
72065;SDS011;59939;52.516;13.420;2023-05-19T11:04:06;5.45;;;1.50;;
72065;SDS011;59939;52.516;13.420;2023-05-19T11:07:13;5.22;;;2.00;;
72065;SDS011;59939;52.516;13.420;2023-05-19T11:10:26;4.47;;;1.80;;
72065;SDS011;59939;52.516;13.420;2023-05-19T11:13:32;4.47;;;1.60;;
72065;SDS011;59939;52.516;13.420;2023-05-19T11:16:36;6.97;;;1.60;;
72065;SDS011;59939;52.516;13.420;2023-05-19T11:19:53;2.85;;;1.52;;
72065;SDS011;59939;52.516;13.420;2023-05-19T11:23:16;3.35;;;1.70;;
72065;SDS011;59939;52.516;13.420;2023-05-19T11:26:38;6.95;;;2.05;;
72065;SDS011;59939;52.516;13.420;2023-05-19T11:29:49;4.55;;;1.30;;
72065;SDS011;59939;52.516;13.420;2023-05-19T11:32:55;5.28;;;1.70;;
72065;SDS011;59939;52.516;13.420;2023-05-19T11:36:01;3.90;;;1.40;;
72065;SDS011;59939;52.516;13.420;2023-05-19T11:39:08;5.20;;;1.88;;
72065;SDS011;59939;52.516;13.420;2023-05-19T11:42:27;3.10;;;1.50;;
72065;SDS011;59939;52.516;13.420;2023-05-19T11:45:31;6.20;;;1.70;;
72065;SDS011;59939;52.516;13.420;2023-05-19T11:48:36;4.65;;;1.90;;
72065;SDS011;59939;52.516;13.420;2023-05-19T11:51:43;4.47;;;1.70;;
72065;SDS011;59939;52.516;13.420;2023-05-19T11:54:48;5.03;;;1.63;;
72065;SDS011;59939;52.516;13.420;2023-05-19T11:57:59;3.15;;;1.65;;
72065;SDS011;59939;52.516;13.420;2023-05-19T12:01:06;5.85;;;1.70;;
72065;SDS011;59939;52.516;13.420;2023-05-19T12:04:10;7.00;;;1.83;;
72065;SDS011;59939;52.516;13.420;2023-05-19T12:07:15;4.90;;;1.60;;
72065;SDS011;59939;52.516;13.420;2023-05-19T12:10:23;3.80;;;1.48;;
72065;SDS011;59939;52.516;13.420;2023-05-19T12:13:29;5.05;;;1.63;;
72065;SDS011;59939;52.516;13.420;2023-05-19T12:16:37;8.05;;;1.60;;
72065;SDS011;59939;52.516;13.420;2023-05-19T12:19:49;4.32;;;1.77;;
72065;SDS011;59939;52.516;13.420;2023-05-19T12:22:59;5.13;;;2.20;;
72065;SDS011;59939;52.516;13.420;2023-05-19T12:26:12;5.15;;;1.67;;
72065;SDS011;59939;52.516;13.420;2023-05-19T12:29:16;9.35;;;1.90;;
72065;SDS011;59939;52.516;13.420;2023-05-19T12:32:22;9.88;;;1.65;;
72065;SDS011;59939;52.516;13.420;2023-05-19T12:35:28;5.53;;;1.85;;
72065;SDS011;59939;52.516;13.420;2023-05-19T12:38:33;6.75;;;1.92;;
72065;SDS011;59939;52.516;13.420;2023-05-19T12:41:43;3.90;;;1.60;;
72065;SDS011;59939;52.516;13.420;2023-05-19T12:44:47;11.77;;;2.33;;
72065;SDS011;59939;52.516;13.420;2023-05-19T12:48:10;4.78;;;1.73;;
72065;SDS011;59939;52.516;13.420;2023-05-19T12:51:15;6.32;;;2.30;;
72065;SDS011;59939;52.516;13.420;2023-05-19T12:54:20;5.07;;;2.22;;
72065;SDS011;59939;52.516;13.420;2023-05-19T12:57:27;6.00;;;1.83;;
72065;SDS011;59939;52.516;13.420;2023-05-19T13:00:38;6.30;;;2.08;;
72065;SDS011;59939;52.516;13.420;2023-05-19T13:03:43;4.72;;;1.83;;
72065;SDS011;59939;52.516;13.420;2023-05-19T13:06:49;5.50;;;1.83;;
72065;SDS011;59939;52.516;13.420;2023-05-19T13:09:53;5.75;;;1.90;;
72065;SDS011;59939;52.516;13.420;2023-05-19T13:12:58;6.45;;;1.88;;
72065;SDS011;59939;52.516;13.420;2023-05-19T13:16:03;7.68;;;2.15;;
72065;SDS011;59939;52.516;13.420;2023-05-19T13:19:07;5.88;;;2.13;;
72065;SDS011;59939;52.516;13.420;2023-05-19T13:22:16;7.03;;;2.03;;
72065;SDS011;59939;52.516;13.420;2023-05-19T13:25:21;7.05;;;2.00;;
72065;SDS011;59939;52.516;13.420;2023-05-19T13:28:25;5.85;;;1.95;;
72065;SDS011;59939;52.516;13.420;2023-05-19T13:31:29;6.32;;;2.22;;
72065;SDS011;59939;52.516;13.420;2023-05-19T13:34:36;4.03;;;1.83;;
72065;SDS011;59939;52.516;13.420;2023-05-19T13:37:43;6.72;;;2.00;;
72065;SDS011;59939;52.516;13.420;2023-05-19T13:40:47;3.75;;;1.80;;
72065;SDS011;59939;52.516;13.420;2023-05-19T13:43:52;6.20;;;2.00;;
72065;SDS011;59939;52.516;13.420;2023-05-19T13:46:55;6.22;;;2.28;;
72065;SDS011;59939;52.516;13.420;2023-05-19T13:50:01;7.80;;;2.08;;
72065;SDS011;59939;52.516;13.420;2023-05-19T13:53:05;6.35;;;2.10;;
72065;SDS011;59939;52.516;13.420;2023-05-19T13:56:11;8.38;;;2.47;;
72065;SDS011;59939;52.516;13.420;2023-05-19T13:59:24;3.63;;;2.00;;
72065;SDS011;59939;52.516;13.420;2023-05-19T14:02:28;3.97;;;1.77;;
72065;SDS011;59939;52.516;13.420;2023-05-19T14:05:33;9.95;;;2.30;;
72065;SDS011;59939;52.516;13.420;2023-05-19T14:08:39;7.60;;;2.08;;
72065;SDS011;59939;52.516;13.420;2023-05-19T14:11:44;7.05;;;1.85;;
72065;SDS011;59939;52.516;13.420;2023-05-19T14:14:51;6.15;;;1.90;;
72065;SDS011;59939;52.516;13.420;2023-05-19T14:18:09;4.47;;;2.03;;
72065;SDS011;59939;52.516;13.420;2023-05-19T14:21:15;9.15;;;2.67;;
72065;SDS011;59939;52.516;13.420;2023-05-19T14:24:20;6.40;;;2.20;;
72065;SDS011;59939;52.516;13.420;2023-05-19T14:27:24;4.82;;;1.85;;
72065;SDS011;59939;52.516;13.420;2023-05-19T14:30:28;5.35;;;1.95;;
72065;SDS011;59939;52.516;13.420;2023-05-19T14:33:36;6.57;;;1.95;;
72065;SDS011;59939;52.516;13.420;2023-05-19T14:36:42;6.82;;;2.00;;
72065;SDS011;59939;52.516;13.420;2023-05-19T14:39:47;6.43;;;2.30;;
72065;SDS011;59939;52.516;13.420;2023-05-19T14:42:51;8.30;;;2.05;;
72065;SDS011;59939;52.516;13.420;2023-05-19T14:45:55;7.35;;;2.13;;
72065;SDS011;59939;52.516;13.420;2023-05-19T14:48:59;5.50;;;2.03;;
72065;SDS011;59939;52.516;13.420;2023-05-19T14:52:04;5.93;;;2.05;;
72065;SDS011;59939;52.516;13.420;2023-05-19T14:55:08;6.28;;;2.00;;
72065;SDS011;59939;52.516;13.420;2023-05-19T14:58:15;7.40;;;1.75;;
72065;SDS011;59939;52.516;13.420;2023-05-19T15:01:29;6.18;;;1.92;;
72065;SDS011;59939;52.516;13.420;2023-05-19T15:04:33;4.93;;;1.88;;
72065;SDS011;59939;52.516;13.420;2023-05-19T15:07:40;5.82;;;1.85;;
72065;SDS011;59939;52.516;13.420;2023-05-19T15:10:52;3.60;;;1.77;;
72065;SDS011;59939;52.516;13.420;2023-05-19T15:13:56;4.38;;;1.98;;
72065;SDS011;59939;52.516;13.420;2023-05-19T15:17:00;8.57;;;2.08;;
72065;SDS011;59939;52.516;13.420;2023-05-19T15:20:04;4.85;;;1.90;;
72065;SDS011;59939;52.516;13.420;2023-05-19T15:23:09;6.03;;;1.90;;
72065;SDS011;59939;52.516;13.420;2023-05-19T15:26:13;4.95;;;1.80;;
72065;SDS011;59939;52.516;13.420;2023-05-19T15:29:31;5.65;;;2.10;;
72065;SDS011;59939;52.516;13.420;2023-05-19T15:32:35;5.20;;;1.70;;
72065;SDS011;59939;52.516;13.420;2023-05-19T15:35:41;4.53;;;1.95;;
72065;SDS011;59939;52.516;13.420;2023-05-19T15:38:46;4.75;;;2.03;;
72065;SDS011;59939;52.516;13.420;2023-05-19T15:41:50;9.85;;;2.38;;
72065;SDS011;59939;52.516;13.420;2023-05-19T15:44:54;7.05;;;2.15;;
72065;SDS011;59939;52.516;13.420;2023-05-19T15:48:00;8.02;;;2.10;;
72065;SDS011;59939;52.516;13.420;2023-05-19T15:51:05;5.43;;;2.10;;
72065;SDS011;59939;52.516;13.420;2023-05-19T15:54:11;4.20;;;1.80;;
72065;SDS011;59939;52.516;13.420;2023-05-19T15:57:17;7.00;;;2.20;;
72065;SDS011;59939;52.516;13.420;2023-05-19T16:00:22;7.18;;;2.03;;
72065;SDS011;59939;52.516;13.420;2023-05-19T16:03:26;5.50;;;1.90;;
72065;SDS011;59939;52.516;13.420;2023-05-19T16:06:33;5.40;;;2.03;;
72065;SDS011;59939;52.516;13.420;2023-05-19T16:09:37;8.07;;;2.40;;
72065;SDS011;59939;52.516;13.420;2023-05-19T16:12:41;7.78;;;2.20;;
72065;SDS011;59939;52.516;13.420;2023-05-19T16:15:45;6.75;;;2.10;;
72065;SDS011;59939;52.516;13.420;2023-05-19T16:18:49;5.97;;;2.20;;
72065;SDS011;59939;52.516;13.420;2023-05-19T16:21:56;5.38;;;1.88;;
72065;SDS011;59939;52.516;13.420;2023-05-19T16:25:04;4.93;;;1.98;;
72065;SDS011;59939;52.516;13.420;2023-05-19T16:28:08;5.90;;;1.80;;
72065;SDS011;59939;52.516;13.420;2023-05-19T16:31:13;4.25;;;1.70;;
72065;SDS011;59939;52.516;13.420;2023-05-19T16:34:18;6.20;;;1.92;;
72065;SDS011;59939;52.516;13.420;2023-05-19T16:37:24;4.75;;;1.60;;
72065;SDS011;59939;52.516;13.420;2023-05-19T16:40:31;12.20;;;2.08;;
72065;SDS011;59939;52.516;13.420;2023-05-19T16:43:35;6.78;;;1.80;;
72065;SDS011;59939;52.516;13.420;2023-05-19T16:46:39;6.55;;;2.15;;
72065;SDS011;59939;52.516;13.420;2023-05-19T16:49:44;4.22;;;1.60;;
72065;SDS011;59939;52.516;13.420;2023-05-19T16:52:48;5.63;;;2.13;;
72065;SDS011;59939;52.516;13.420;2023-05-19T16:55:52;6.47;;;1.85;;
72065;SDS011;59939;52.516;13.420;2023-05-19T16:58:58;7.55;;;1.80;;
72065;SDS011;59939;52.516;13.420;2023-05-19T17:02:02;6.53;;;2.28;;
72065;SDS011;59939;52.516;13.420;2023-05-19T17:05:06;6.20;;;2.05;;
72065;SDS011;59939;52.516;13.420;2023-05-19T17:08:11;6.65;;;2.20;;
72065;SDS011;59939;52.516;13.420;2023-05-19T17:11:15;8.35;;;2.15;;
72065;SDS011;59939;52.516;13.420;2023-05-19T17:14:20;8.40;;;2.40;;
72065;SDS011;59939;52.516;13.420;2023-05-19T17:17:24;7.80;;;2.22;;
72065;SDS011;59939;52.516;13.420;2023-05-19T17:20:28;7.15;;;2.53;;
72065;SDS011;59939;52.516;13.420;2023-05-19T17:23:32;8.18;;;2.70;;
72065;SDS011;59939;52.516;13.420;2023-05-19T17:26:36;8.95;;;2.28;;
72065;SDS011;59939;52.516;13.420;2023-05-19T17:29:41;5.43;;;2.33;;
72065;SDS011;59939;52.516;13.420;2023-05-19T17:32:45;5.15;;;2.10;;
72065;SDS011;59939;52.516;13.420;2023-05-19T17:35:51;6.95;;;2.30;;
72065;SDS011;59939;52.516;13.420;2023-05-19T17:38:55;9.68;;;2.45;;
72065;SDS011;59939;52.516;13.420;2023-05-19T17:41:59;7.25;;;2.35;;
72065;SDS011;59939;52.516;13.420;2023-05-19T17:45:04;7.88;;;2.28;;
72065;SDS011;59939;52.516;13.420;2023-05-19T17:48:10;9.18;;;2.75;;
72065;SDS011;59939;52.516;13.420;2023-05-19T17:51:19;6.82;;;2.60;;
72065;SDS011;59939;52.516;13.420;2023-05-19T17:54:32;8.15;;;2.22;;
72065;SDS011;59939;52.516;13.420;2023-05-19T17:57:39;5.43;;;2.03;;
72065;SDS011;59939;52.516;13.420;2023-05-19T18:00:44;5.05;;;1.98;;
72065;SDS011;59939;52.516;13.420;2023-05-19T18:03:57;5.93;;;2.35;;
72065;SDS011;59939;52.516;13.420;2023-05-19T18:07:01;6.78;;;2.25;;
72065;SDS011;59939;52.516;13.420;2023-05-19T18:10:06;10.48;;;2.65;;
72065;SDS011;59939;52.516;13.420;2023-05-19T18:13:13;6.72;;;2.13;;
72065;SDS011;59939;52.516;13.420;2023-05-19T18:16:19;6.97;;;2.20;;
72065;SDS011;59939;52.516;13.420;2023-05-19T18:19:25;6.38;;;2.25;;
72065;SDS011;59939;52.516;13.420;2023-05-19T18:22:29;6.55;;;2.40;;
72065;SDS011;59939;52.516;13.420;2023-05-19T18:25:34;5.97;;;2.30;;
72065;SDS011;59939;52.516;13.420;2023-05-19T18:28:38;7.88;;;2.22;;
72065;SDS011;59939;52.516;13.420;2023-05-19T18:31:42;8.43;;;2.53;;
72065;SDS011;59939;52.516;13.420;2023-05-19T18:34:49;6.93;;;2.58;;
72065;SDS011;59939;52.516;13.420;2023-05-19T18:37:53;9.75;;;2.60;;
72065;SDS011;59939;52.516;13.420;2023-05-19T18:40:59;7.40;;;2.42;;
72065;SDS011;59939;52.516;13.420;2023-05-19T18:44:03;8.90;;;2.72;;
72065;SDS011;59939;52.516;13.420;2023-05-19T18:47:14;6.40;;;2.45;;
72065;SDS011;59939;52.516;13.420;2023-05-19T18:50:19;7.40;;;2.30;;